Main page
METAR-TAF:

METAR-TAF

Airports :

Kuwait City, Kuwait

Kuwait International Airport

latitude: 29-13N, longitude: 047-59E, elevation: 55 m

Current weather observation

The report was made 1 hour and 4 minutes ago, at 14:00 UTC
Wind 5 kt from the East/Southeast
Temperature 26°C
Humidity 34%
Pressure 1014 hPa
Visibility 10 km or more
Few clouds at a height of 3000 ft
Broken clouds at a height of 20000 ft

METAR: OKBK 291400Z 11005KT 9999 FEW030 BKN200 26/09 Q1014 NOSIG

Time: 18:04 (15:04 UTC)

Forecast

The report was made 4 hours and 19 minutes ago, at 10:45 UTC
Forecast valid from 29 at 12 UTC to 30 at 18 UTC
Wind 8 kt from the Southeast with gusts up to 18 kt
Visibility: 7000 m
Scattered clouds at a height of 4000 ft
Broken clouds at a height of 8000 ft
Temporary
from 29 at 12 UTC to 29 at 18 UTC
Visibility: 4000 m
rain

TAF: OKBK 291045Z 2912/3018 14008G18KT 7000 SCT040 BKN080 TEMPO 2912/2918 4000 RA

Weather observations and forecasts of more than 4000 airports (METAR and TAF reports).

The available stations are represented by yellow and red dots on the map.

Hover mouse over dot to see the name of the station.

Then click to see weather observations and forecasts.

To change the map : click on the green buttons with a black cross to zoom in, on the green button with a dash to zoom out, or on the green arrows for adjacent maps.


METAR-TAF: